Main page
METAR-TAF:

METAR-TAF

Airports :

Ciudad Juárez International Airport

Ciudad Juárez, Mexico

latitude: 31-38N, longitude: 106-26W, elevation: 3841 ft

Current weather observation

The report was made 25 minutes ago, at 17:43 UTC
Calm wind
Temperature 93°F
Humidity 25%
Pressure 29.97 in. Hg
Visibility: 10 miles
Clear sky

METAR: MMCS 151743Z 00000KT 10SM SKC 34/11 A2997 RMK SLP000 57008 959

Time: 12:08 (18:08 UTC)

Forecast

The report was made 1 hour and 27 minutes ago, at 16:41 UTC
Forecast valid from 15 at 18 UTC to 16 at 18 UTC
Wind 12 mph from the West/Southwest
Visibility: 6 miles
Clear sky
Temporary
from 15 at 20 UTC to 15 at 24 UTC
Wind 23 mph from the West/Southwest
From 16 at 0300 UTC
Wind 6 mph from the West/Southwest
Visibility: 6 miles
Clear sky
From 16 at 1700 UTC
Wind 12 mph from the West/Southwest
Visibility: 6 miles
Clear sky

TAF: MMCS 151641Z 1518/1618 25010KT P6SM SKC TEMPO 1520/1524 24020KT FM160300 24005KT P6SM SKC FM161700 24010KT P6SM SKC

Weather observations and forecasts of more than 4000 airports (METAR and TAF reports).

The available stations are represented by yellow and red dots on the map.

Hover mouse over dot to see the name of the station.

Then click to see weather observations and forecasts.

To change the map : click on the green buttons with a black cross to zoom in, on the green button with a dash to zoom out, or on the green arrows for adjacent maps.


METAR-TAF: